Terminal Aerodrome Forecast
Issued by NWS Cleveland, OH

Home | Current Version | Previous Version | Graphics & Text | Print | Product List | Glossary Off
Versions: 1 2 3 4 5 6 7 8 9 10 11 12 13 14 15 16 17 18 19 20 21 22 23 24 25 26 27 28 29 30

000
FTUS41 KCLE 250243 AAA
TAFCLE
TAF AMD
KCLE 250243Z 2503/2606 34010G20KT P6SM OVC040
     FM250400 34013KT P6SM BKN025
     FM251100 01009KT P6SM BKN035
     FM251500 01009KT P6SM SCT035
     FM252300 04007KT P6SM FEW200
     FM260200 08006KT P6SM FEW250=

USA.gov is the U.S. government's official web portal to all federal, state and local government web resources and services.